sensor_id;sensor_type;location;lat;lon;timestamp;pressure;altitude;pressure_sealevel;temperature;humidity
4469;BME280;2247;42.666;23.292;2023-04-24T00:01:40;94133.13;;;15.52;48.69
4469;BME280;2247;42.666;23.292;2023-04-24T00:04:08;94126.22;;;15.43;49.07
4469;BME280;2247;42.666;23.292;2023-04-24T00:06:36;94120.28;;;15.46;48.67
4469;BME280;2247;42.666;23.292;2023-04-24T00:09:04;94112.94;;;15.43;48.64
4469;BME280;2247;42.666;23.292;2023-04-24T00:11:31;94119.34;;;15.42;49.41
4469;BME280;2247;42.666;23.292;2023-04-24T00:13:57;94111.50;;;15.36;49.75
4469;BME280;2247;42.666;23.292;2023-04-24T00:16:26;94105.28;;;15.41;49.11
4469;BME280;2247;42.666;23.292;2023-04-24T00:18:53;94108.16;;;15.53;48.54
4469;BME280;2247;42.666;23.292;2023-04-24T00:21:20;94115.84;;;15.63;48.71
4469;BME280;2247;42.666;23.292;2023-04-24T00:23:51;94106.00;;;15.64;48.94
4469;BME280;2247;42.666;23.292;2023-04-24T00:26:17;94065.28;;;15.37;48.60
4469;BME280;2247;42.666;23.292;2023-04-24T00:28:44;94106.97;;;15.68;48.85
4469;BME280;2247;42.666;23.292;2023-04-24T00:31:12;94113.50;;;15.62;48.65
4469;BME280;2247;42.666;23.292;2023-04-24T00:33:40;94109.75;;;15.63;48.93
4469;BME280;2247;42.666;23.292;2023-04-24T00:36:07;94108.03;;;15.58;48.48
4469;BME280;2247;42.666;23.292;2023-04-24T00:38:34;94119.06;;;15.52;48.77
4469;BME280;2247;42.666;23.292;2023-04-24T00:41:01;94105.22;;;15.55;48.97
4469;BME280;2247;42.666;23.292;2023-04-24T00:43:28;94109.28;;;15.61;48.79
4469;BME280;2247;42.666;23.292;2023-04-24T00:45:55;94102.25;;;15.65;49.05
4469;BME280;2247;42.666;23.292;2023-04-24T00:48:23;94101.81;;;15.71;48.72
4469;BME280;2247;42.666;23.292;2023-04-24T00:50:51;94099.78;;;15.68;49.00
4469;BME280;2247;42.666;23.292;2023-04-24T00:53:19;94103.22;;;15.69;49.17
4469;BME280;2247;42.666;23.292;2023-04-24T00:55:46;94108.53;;;15.69;49.04
4469;BME280;2247;42.666;23.292;2023-04-24T00:58:13;94114.78;;;15.73;49.29
4469;BME280;2247;42.666;23.292;2023-04-24T01:00:40;94103.38;;;15.72;49.67
4469;BME280;2247;42.666;23.292;2023-04-24T01:03:07;94107.28;;;15.75;50.08
4469;BME280;2247;42.666;23.292;2023-04-24T01:05:34;94103.53;;;15.85;50.08
4469;BME280;2247;42.666;23.292;2023-04-24T01:08:03;94091.03;;;15.85;50.24
4469;BME280;2247;42.666;23.292;2023-04-24T01:10:31;94092.13;;;15.84;50.61
4469;BME280;2247;42.666;23.292;2023-04-24T01:12:59;94091.81;;;15.86;50.48
4469;BME280;2247;42.666;23.292;2023-04-24T01:15:26;94082.91;;;15.73;50.54
4469;BME280;2247;42.666;23.292;2023-04-24T01:17:53;94075.69;;;15.65;51.07
4469;BME280;2247;42.666;23.292;2023-04-24T01:20:20;94077.28;;;15.74;50.95
4469;BME280;2247;42.666;23.292;2023-04-24T01:22:48;94071.22;;;15.83;49.96
4469;BME280;2247;42.666;23.292;2023-04-24T01:25:15;94080.91;;;15.96;47.53
4469;BME280;2247;42.666;23.292;2023-04-24T01:27:42;94083.38;;;15.84;48.71
4469;BME280;2247;42.666;23.292;2023-04-24T01:30:10;94077.22;;;15.57;51.18
4469;BME280;2247;42.666;23.292;2023-04-24T01:32:38;94060.38;;;15.53;48.77
4469;BME280;2247;42.666;23.292;2023-04-24T01:35:06;94065.28;;;15.37;48.80
4469;BME280;2247;42.666;23.292;2023-04-24T01:37:33;94076.16;;;14.88;51.40
4469;BME280;2247;42.666;23.292;2023-04-24T01:40:05;94074.59;;;14.87;51.63
4469;BME280;2247;42.666;23.292;2023-04-24T01:42:32;94077.84;;;15.06;52.04
4469;BME280;2247;42.666;23.292;2023-04-24T01:44:59;94069.88;;;15.06;52.19
4469;BME280;2247;42.666;23.292;2023-04-24T01:47:29;94064.28;;;15.16;51.32
4469;BME280;2247;42.666;23.292;2023-04-24T01:49:56;94065.84;;;15.17;51.31
4469;BME280;2247;42.666;23.292;2023-04-24T01:52:24;94073.78;;;15.09;50.87
4469;BME280;2247;42.666;23.292;2023-04-24T01:54:52;94061.31;;;15.18;50.90
4469;BME280;2247;42.666;23.292;2023-04-24T01:57:20;94060.84;;;15.16;50.45
4469;BME280;2247;42.666;23.292;2023-04-24T01:59:47;94066.78;;;15.13;50.50
4469;BME280;2247;42.666;23.292;2023-04-24T02:02:13;94065.06;;;15.17;50.18
4469;BME280;2247;42.666;23.292;2023-04-24T02:04:41;94060.47;;;15.00;51.24
4469;BME280;2247;42.666;23.292;2023-04-24T02:07:07;94064.56;;;15.06;51.64
4469;BME280;2247;42.666;23.292;2023-04-24T02:09:34;94062.06;;;15.10;51.05
4469;BME280;2247;42.666;23.292;2023-04-24T02:12:01;94064.41;;;15.11;51.52
4469;BME280;2247;42.666;23.292;2023-04-24T02:14:29;94067.69;;;15.08;52.05
4469;BME280;2247;42.666;23.292;2023-04-24T02:16:56;94062.25;;;15.13;52.60
4469;BME280;2247;42.666;23.292;2023-04-24T02:19:23;94065.16;;;15.03;52.68
4469;BME280;2247;42.666;23.292;2023-04-24T02:21:50;94057.13;;;14.86;52.75
4469;BME280;2247;42.666;23.292;2023-04-24T02:24:16;94062.94;;;14.96;52.42
4469;BME280;2247;42.666;23.292;2023-04-24T02:26:43;94055.78;;;14.97;51.40
4469;BME280;2247;42.666;23.292;2023-04-24T02:29:10;94044.69;;;14.95;51.43
4469;BME280;2247;42.666;23.292;2023-04-24T02:31:39;94055.13;;;14.91;51.91
4469;BME280;2247;42.666;23.292;2023-04-24T02:34:06;94051.69;;;14.91;52.17
4469;BME280;2247;42.666;23.292;2023-04-24T02:36:33;94049.19;;;14.86;51.32
4469;BME280;2247;42.666;23.292;2023-04-24T02:38:59;94035.25;;;14.80;51.90
4469;BME280;2247;42.666;23.292;2023-04-24T02:41:26;94035.09;;;14.77;51.71
4469;BME280;2247;42.666;23.292;2023-04-24T02:43:56;94034.59;;;14.75;52.24
4469;BME280;2247;42.666;23.292;2023-04-24T02:46:24;94034.16;;;14.81;52.09
4469;BME280;2247;42.666;23.292;2023-04-24T02:48:52;94026.22;;;14.81;52.40
4469;BME280;2247;42.666;23.292;2023-04-24T02:51:19;94020.13;;;14.81;52.83
4469;BME280;2247;42.666;23.292;2023-04-24T02:53:46;94032.78;;;14.84;52.52
4469;BME280;2247;42.666;23.292;2023-04-24T02:56:13;94028.69;;;14.78;52.67
4469;BME280;2247;42.666;23.292;2023-04-24T02:58:40;94026.94;;;14.73;53.33
4469;BME280;2247;42.666;23.292;2023-04-24T03:01:07;94037.25;;;14.75;53.25
4469;BME280;2247;42.666;23.292;2023-04-24T03:03:35;94038.56;;;14.86;52.95
4469;BME280;2247;42.666;23.292;2023-04-24T03:06:03;94046.63;;;14.81;53.10
4469;BME280;2247;42.666;23.292;2023-04-24T03:08:31;94041.81;;;14.83;53.04
4469;BME280;2247;42.666;23.292;2023-04-24T03:10:58;94049.56;;;14.71;53.39
4469;BME280;2247;42.666;23.292;2023-04-24T03:13:25;94042.56;;;14.75;53.59
4469;BME280;2247;42.666;23.292;2023-04-24T03:15:52;94039.91;;;14.75;53.14
4469;BME280;2247;42.666;23.292;2023-04-24T03:18:19;94053.16;;;14.75;53.09
4469;BME280;2247;42.666;23.292;2023-04-24T03:20:46;94051.25;;;14.67;53.62
4469;BME280;2247;42.666;23.292;2023-04-24T03:23:14;94055.59;;;14.63;53.92
4469;BME280;2247;42.666;23.292;2023-04-24T03:25:41;94054.97;;;14.57;54.37
4469;BME280;2247;42.666;23.292;2023-04-24T03:28:09;94047.16;;;14.61;54.48
4469;BME280;2247;42.666;23.292;2023-04-24T03:30:36;94046.44;;;14.69;54.08
4469;BME280;2247;42.666;23.292;2023-04-24T03:33:02;94046.38;;;14.60;54.38
4469;BME280;2247;42.666;23.292;2023-04-24T03:35:30;94045.47;;;14.65;54.97
4469;BME280;2247;42.666;23.292;2023-04-24T03:37:56;94050.91;;;14.59;55.21
4469;BME280;2247;42.666;23.292;2023-04-24T03:40:24;94038.75;;;14.58;55.34
4469;BME280;2247;42.666;23.292;2023-04-24T03:42:54;94041.25;;;14.64;55.00
4469;BME280;2247;42.666;23.292;2023-04-24T03:45:21;94039.41;;;14.64;55.10
4469;BME280;2247;42.666;23.292;2023-04-24T03:47:48;94036.78;;;14.73;54.56
4469;BME280;2247;42.666;23.292;2023-04-24T03:50:15;94043.47;;;14.70;54.18
4469;BME280;2247;42.666;23.292;2023-04-24T03:52:42;94039.44;;;14.73;54.81
4469;BME280;2247;42.666;23.292;2023-04-24T03:55:09;94038.03;;;14.75;54.37
4469;BME280;2247;42.666;23.292;2023-04-24T03:57:40;94020.03;;;14.64;54.06
4469;BME280;2247;42.666;23.292;2023-04-24T04:00:08;94048.22;;;14.82;53.24
4469;BME280;2247;42.666;23.292;2023-04-24T04:02:35;94051.22;;;14.89;53.48
4469;BME280;2247;42.666;23.292;2023-04-24T04:05:02;94043.59;;;14.96;52.98
4469;BME280;2247;42.666;23.292;2023-04-24T04:07:29;94044.41;;;15.05;52.90
4469;BME280;2247;42.666;23.292;2023-04-24T04:09:56;94046.78;;;15.15;52.71
4469;BME280;2247;42.666;23.292;2023-04-24T04:12:23;94050.25;;;15.24;51.76
4469;BME280;2247;42.666;23.292;2023-04-24T04:14:51;94040.13;;;15.26;51.15
4469;BME280;2247;42.666;23.292;2023-04-24T04:17:18;94044.81;;;15.38;51.39
4469;BME280;2247;42.666;23.292;2023-04-24T04:19:45;94045.78;;;15.51;51.54
4469;BME280;2247;42.666;23.292;2023-04-24T04:22:12;94048.03;;;15.66;51.06
4469;BME280;2247;42.666;23.292;2023-04-24T04:24:39;94047.91;;;15.80;50.89
4469;BME280;2247;42.666;23.292;2023-04-24T04:27:06;94041.47;;;15.72;50.28
4469;BME280;2247;42.666;23.292;2023-04-24T04:29:33;94046.81;;;15.81;49.65
4469;BME280;2247;42.666;23.292;2023-04-24T04:32:02;94044.28;;;15.67;49.45
4469;BME280;2247;42.666;23.292;2023-04-24T04:34:29;94057.91;;;15.74;49.74
4469;BME280;2247;42.666;23.292;2023-04-24T04:36:57;94053.06;;;15.76;49.42
4469;BME280;2247;42.666;23.292;2023-04-24T04:39:26;94058.50;;;15.54;49.32
4469;BME280;2247;42.666;23.292;2023-04-24T04:41:53;94066.25;;;15.50;49.63
4469;BME280;2247;42.666;23.292;2023-04-24T04:44:20;94064.69;;;15.49;50.18
4469;BME280;2247;42.666;23.292;2023-04-24T04:46:49;94078.91;;;15.45;50.60
4469;BME280;2247;42.666;23.292;2023-04-24T04:49:20;94078.97;;;15.62;49.72
4469;BME280;2247;42.666;23.292;2023-04-24T04:51:47;94083.50;;;15.70;49.91
4469;BME280;2247;42.666;23.292;2023-04-24T04:54:14;94084.47;;;15.74;49.88
4469;BME280;2247;42.666;23.292;2023-04-24T04:56:41;94079.16;;;15.74;50.00
4469;BME280;2247;42.666;23.292;2023-04-24T04:59:08;94084.63;;;15.86;49.96
4469;BME280;2247;42.666;23.292;2023-04-24T05:01:36;94081.06;;;15.99;49.38
4469;BME280;2247;42.666;23.292;2023-04-24T05:04:03;94081.69;;;15.96;49.51
4469;BME280;2247;42.666;23.292;2023-04-24T05:06:32;94089.19;;;15.94;49.31
4469;BME280;2247;42.666;23.292;2023-04-24T05:08:59;94077.63;;;15.90;48.82
4469;BME280;2247;42.666;23.292;2023-04-24T05:11:25;94084.00;;;15.81;48.77
4469;BME280;2247;42.666;23.292;2023-04-24T05:13:53;94080.84;;;15.70;47.80
4469;BME280;2247;42.666;23.292;2023-04-24T05:16:20;94080.56;;;15.80;46.37
4469;BME280;2247;42.666;23.292;2023-04-24T05:18:46;94085.72;;;15.76;45.87
4469;BME280;2247;42.666;23.292;2023-04-24T05:21:13;94092.88;;;15.59;46.45
4469;BME280;2247;42.666;23.292;2023-04-24T05:23:42;94086.25;;;15.48;46.60
4469;BME280;2247;42.666;23.292;2023-04-24T05:26:09;94086.72;;;15.50;46.65
4469;BME280;2247;42.666;23.292;2023-04-24T05:28:36;94076.06;;;15.32;46.84
4469;BME280;2247;42.666;23.292;2023-04-24T05:31:03;94084.66;;;14.98;47.35
4469;BME280;2247;42.666;23.292;2023-04-24T05:33:30;94083.19;;;14.84;47.43
4469;BME280;2247;42.666;23.292;2023-04-24T05:35:57;94032.66;;;14.58;47.66
4469;BME280;2247;42.666;23.292;2023-04-24T05:38:24;94076.06;;;14.93;48.43
4469;BME280;2247;42.666;23.292;2023-04-24T05:40:52;94080.19;;;15.16;47.59
4469;BME280;2247;42.666;23.292;2023-04-24T05:43:19;94089.00;;;15.25;47.84
4469;BME280;2247;42.666;23.292;2023-04-24T05:45:45;94088.03;;;15.21;47.53
4469;BME280;2247;42.666;23.292;2023-04-24T05:48:12;94085.31;;;15.04;47.83
4469;BME280;2247;42.666;23.292;2023-04-24T05:50:39;94092.13;;;15.27;47.85
4469;BME280;2247;42.666;23.292;2023-04-24T05:53:06;94090.38;;;15.54;47.44
4469;BME280;2247;42.666;23.292;2023-04-24T05:55:36;94090.88;;;15.73;46.73
4469;BME280;2247;42.666;23.292;2023-04-24T05:58:04;94087.94;;;16.00;46.36
4469;BME280;2247;42.666;23.292;2023-04-24T06:00:31;94079.34;;;16.12;45.78
4469;BME280;2247;42.666;23.292;2023-04-24T06:03:01;94079.97;;;16.52;45.29
4469;BME280;2247;42.666;23.292;2023-04-24T06:05:28;94083.09;;;16.80;45.24
4469;BME280;2247;42.666;23.292;2023-04-24T06:07:55;94080.97;;;17.03;44.19
4469;BME280;2247;42.666;23.292;2023-04-24T06:10:23;94078.38;;;17.23;43.39
4469;BME280;2247;42.666;23.292;2023-04-24T06:12:50;94061.31;;;17.24;43.14
4469;BME280;2247;42.666;23.292;2023-04-24T06:15:18;94081.97;;;17.65;42.32
4469;BME280;2247;42.666;23.292;2023-04-24T06:17:45;94075.00;;;18.02;42.01
4469;BME280;2247;42.666;23.292;2023-04-24T06:20:12;94068.50;;;18.12;42.29
4469;BME280;2247;42.666;23.292;2023-04-24T06:22:39;94080.91;;;18.49;41.03
4469;BME280;2247;42.666;23.292;2023-04-24T06:25:06;94072.91;;;18.70;40.37
4469;BME280;2247;42.666;23.292;2023-04-24T06:27:34;94078.81;;;18.76;40.64
4469;BME280;2247;42.666;23.292;2023-04-24T06:30:01;94080.41;;;18.89;39.80
4469;BME280;2247;42.666;23.292;2023-04-24T06:32:29;94073.63;;;18.92;39.96
4469;BME280;2247;42.666;23.292;2023-04-24T06:34:57;94076.56;;;19.11;39.79
4469;BME280;2247;42.666;23.292;2023-04-24T06:37:24;94077.78;;;19.13;39.35
4469;BME280;2247;42.666;23.292;2023-04-24T06:39:51;94078.44;;;19.10;39.71
4469;BME280;2247;42.666;23.292;2023-04-24T06:42:18;94073.97;;;19.02;39.86
4469;BME280;2247;42.666;23.292;2023-04-24T06:44:46;94086.03;;;18.75;40.18
4469;BME280;2247;42.666;23.292;2023-04-24T06:47:14;94081.06;;;18.86;40.36
4469;BME280;2247;42.666;23.292;2023-04-24T06:49:42;94094.00;;;18.63;40.72
4469;BME280;2247;42.666;23.292;2023-04-24T06:52:09;94086.16;;;18.79;40.93
4469;BME280;2247;42.666;23.292;2023-04-24T06:54:36;94085.13;;;19.16;40.40
4469;BME280;2247;42.666;23.292;2023-04-24T06:57:03;94066.22;;;19.34;39.90
4469;BME280;2247;42.666;23.292;2023-04-24T06:59:30;94070.66;;;19.17;39.84
4469;BME280;2247;42.666;23.292;2023-04-24T07:01:57;94072.00;;;19.23;40.23
4469;BME280;2247;42.666;23.292;2023-04-24T07:04:24;94059.66;;;19.31;39.85
4469;BME280;2247;42.666;23.292;2023-04-24T07:06:53;94062.78;;;19.82;42.86
4469;BME280;2247;42.666;23.292;2023-04-24T07:09:21;94070.97;;;20.25;39.02
4469;BME280;2247;42.666;23.292;2023-04-24T07:11:49;94062.78;;;20.46;38.38
4469;BME280;2247;42.666;23.292;2023-04-24T07:14:17;94037.66;;;20.51;38.03
4469;BME280;2247;42.666;23.292;2023-04-24T07:16:44;94068.56;;;20.76;37.92
4469;BME280;2247;42.666;23.292;2023-04-24T07:19:11;94063.34;;;21.11;37.03
4469;BME280;2247;42.666;23.292;2023-04-24T07:21:39;94058.19;;;21.34;36.71
4469;BME280;2247;42.666;23.292;2023-04-24T07:24:07;94055.09;;;21.32;36.97
4469;BME280;2247;42.666;23.292;2023-04-24T07:26:38;94051.19;;;21.60;36.38
4469;BME280;2247;42.666;23.292;2023-04-24T07:29:06;94038.56;;;21.45;36.16
4469;BME280;2247;42.666;23.292;2023-04-24T07:31:33;94042.91;;;21.50;36.07
4469;BME280;2247;42.666;23.292;2023-04-24T07:33:59;94038.22;;;21.47;35.72
4469;BME280;2247;42.666;23.292;2023-04-24T07:36:26;94037.59;;;21.53;35.72
4469;BME280;2247;42.666;23.292;2023-04-24T07:38:54;94034.47;;;21.51;35.79
4469;BME280;2247;42.666;23.292;2023-04-24T07:41:22;94033.69;;;21.51;35.58
4469;BME280;2247;42.666;23.292;2023-04-24T07:43:49;94035.25;;;21.52;36.14
4469;BME280;2247;42.666;23.292;2023-04-24T07:46:16;94036.22;;;21.44;36.12
4469;BME280;2247;42.666;23.292;2023-04-24T07:48:46;94043.75;;;21.38;36.39
4469;BME280;2247;42.666;23.292;2023-04-24T07:51:13;94032.94;;;21.19;37.09
4469;BME280;2247;42.666;23.292;2023-04-24T07:53:40;94044.16;;;21.09;37.05
4469;BME280;2247;42.666;23.292;2023-04-24T07:56:07;94036.19;;;20.97;36.98
4469;BME280;2247;42.666;23.292;2023-04-24T07:58:36;94030.13;;;20.84;37.35
4469;BME280;2247;42.666;23.292;2023-04-24T08:01:03;94027.25;;;20.77;38.00
4469;BME280;2247;42.666;23.292;2023-04-24T08:03:30;94039.53;;;20.78;37.18
4469;BME280;2247;42.666;23.292;2023-04-24T08:05:57;94030.00;;;20.65;38.03
4469;BME280;2247;42.666;23.292;2023-04-24T08:08:25;93985.41;;;20.29;37.95
4469;BME280;2247;42.666;23.292;2023-04-24T08:10:52;94019.44;;;20.56;38.18
4469;BME280;2247;42.666;23.292;2023-04-24T08:13:20;94033.13;;;20.67;38.23
4469;BME280;2247;42.666;23.292;2023-04-24T08:15:48;94022.50;;;20.70;38.82
4469;BME280;2247;42.666;23.292;2023-04-24T08:18:15;94024.06;;;20.71;38.29
4469;BME280;2247;42.666;23.292;2023-04-24T08:20:42;94013.75;;;20.58;38.58
4469;BME280;2247;42.666;23.292;2023-04-24T08:23:10;94014.53;;;20.58;38.17
4469;BME280;2247;42.666;23.292;2023-04-24T08:25:37;94011.41;;;20.56;38.70
4469;BME280;2247;42.666;23.292;2023-04-24T08:28:05;94011.13;;;20.73;39.02
4469;BME280;2247;42.666;23.292;2023-04-24T08:30:33;94004.78;;;20.81;38.36
4469;BME280;2247;42.666;23.292;2023-04-24T08:33:01;94012.56;;;20.71;38.16
4469;BME280;2247;42.666;23.292;2023-04-24T08:35:28;94005.97;;;20.68;38.01
4469;BME280;2247;42.666;23.292;2023-04-24T08:37:55;93999.25;;;20.59;38.16
4469;BME280;2247;42.666;23.292;2023-04-24T08:40:26;93999.44;;;20.66;38.80
4469;BME280;2247;42.666;23.292;2023-04-24T08:42:54;93993.75;;;20.83;38.28
4469;BME280;2247;42.666;23.292;2023-04-24T08:45:23;93995.03;;;20.73;37.94
4469;BME280;2247;42.666;23.292;2023-04-24T08:47:51;93993.19;;;20.62;37.81
4469;BME280;2247;42.666;23.292;2023-04-24T08:50:21;93986.88;;;20.54;38.19
4469;BME280;2247;42.666;23.292;2023-04-24T08:52:50;93938.03;;;20.29;39.00
4469;BME280;2247;42.666;23.292;2023-04-24T08:55:18;93987.06;;;20.61;39.06
4469;BME280;2247;42.666;23.292;2023-04-24T08:57:50;93984.75;;;20.60;38.25
4469;BME280;2247;42.666;23.292;2023-04-24T09:00:18;93953.63;;;20.27;38.79
4469;BME280;2247;42.666;23.292;2023-04-24T09:02:48;93975.97;;;20.47;39.34
4469;BME280;2247;42.666;23.292;2023-04-24T09:05:16;93962.78;;;20.54;39.45
4469;BME280;2247;42.666;23.292;2023-04-24T09:07:49;93955.34;;;20.48;39.06
4469;BME280;2247;42.666;23.292;2023-04-24T09:10:20;93957.88;;;20.56;39.36
4469;BME280;2247;42.666;23.292;2023-04-24T09:12:47;93964.34;;;20.55;39.56
4469;BME280;2247;42.666;23.292;2023-04-24T09:15:14;93961.16;;;20.65;39.39
4469;BME280;2247;42.666;23.292;2023-04-24T09:17:42;93964.97;;;20.64;38.75
4469;BME280;2247;42.666;23.292;2023-04-24T09:20:10;93961.91;;;20.50;38.74
4469;BME280;2247;42.666;23.292;2023-04-24T09:22:37;93957.88;;;20.56;38.77
4469;BME280;2247;42.666;23.292;2023-04-24T09:25:07;93948.03;;;20.60;38.70
4469;BME280;2247;42.666;23.292;2023-04-24T09:27:34;93945.78;;;20.62;38.31
4469;BME280;2247;42.666;23.292;2023-04-24T09:30:02;93949.31;;;20.51;38.59
4469;BME280;2247;42.666;23.292;2023-04-24T09:32:29;93935.69;;;20.28;38.54
4469;BME280;2247;42.666;23.292;2023-04-24T09:35:09;93941.72;;;20.25;38.42
4469;BME280;2247;42.666;23.292;2023-04-24T09:37:38;93933.16;;;20.19;38.83
4469;BME280;2247;42.666;23.292;2023-04-24T09:40:13;93931.75;;;20.37;38.88
4469;BME280;2247;42.666;23.292;2023-04-24T09:42:43;93933.31;;;20.38;38.84
4469;BME280;2247;42.666;23.292;2023-04-24T09:45:10;93936.13;;;20.30;38.54
4469;BME280;2247;42.666;23.292;2023-04-24T09:47:38;93931.56;;;20.02;38.66
4469;BME280;2247;42.666;23.292;2023-04-24T09:50:15;93930.38;;;20.16;39.35
4469;BME280;2247;42.666;23.292;2023-04-24T09:52:43;93932.59;;;20.26;39.40
4469;BME280;2247;42.666;23.292;2023-04-24T09:55:19;93926.53;;;20.29;38.83
4469;BME280;2247;42.666;23.292;2023-04-24T09:57:48;93917.00;;;20.16;38.54
4469;BME280;2247;42.666;23.292;2023-04-24T10:00:18;93912.03;;;20.30;38.27
4469;BME280;2247;42.666;23.292;2023-04-24T10:02:50;93909.31;;;20.42;38.18
4469;BME280;2247;42.666;23.292;2023-04-24T10:05:17;93901.19;;;20.54;37.72
4469;BME280;2247;42.666;23.292;2023-04-24T10:07:45;93897.50;;;20.59;37.74
4469;BME280;2247;42.666;23.292;2023-04-24T10:10:12;93879.38;;;20.52;37.84
4469;BME280;2247;42.666;23.292;2023-04-24T10:12:40;93882.28;;;20.47;38.05
4469;BME280;2247;42.666;23.292;2023-04-24T10:15:10;93880.97;;;20.41;38.06
4469;BME280;2247;42.666;23.292;2023-04-24T10:17:39;93879.91;;;20.30;37.89
4469;BME280;2247;42.666;23.292;2023-04-24T10:20:07;93865.09;;;20.48;37.44
4469;BME280;2247;42.666;23.292;2023-04-24T10:22:36;93870.13;;;20.65;37.19
4469;BME280;2247;42.666;23.292;2023-04-24T10:25:04;93865.63;;;20.69;36.99
4469;BME280;2247;42.666;23.292;2023-04-24T10:27:34;93861.97;;;20.62;36.55
4469;BME280;2247;42.666;23.292;2023-04-24T10:30:04;93858.81;;;20.56;37.51
4469;BME280;2247;42.666;23.292;2023-04-24T10:32:32;93861.31;;;20.49;37.18
4469;BME280;2247;42.666;23.292;2023-04-24T10:34:59;93850.59;;;20.49;36.66
4469;BME280;2247;42.666;23.292;2023-04-24T10:37:26;93850.75;;;20.56;36.84
4469;BME280;2247;42.666;23.292;2023-04-24T10:39:54;93848.44;;;20.55;37.34
4469;BME280;2247;42.666;23.292;2023-04-24T10:42:22;93845.47;;;20.75;37.26
4469;BME280;2247;42.666;23.292;2023-04-24T10:44:49;93842.59;;;21.00;37.41
4469;BME280;2247;42.666;23.292;2023-04-24T10:47:17;93848.84;;;21.23;36.82
4469;BME280;2247;42.666;23.292;2023-04-24T10:49:45;93841.13;;;21.37;34.71
4469;BME280;2247;42.666;23.292;2023-04-24T10:52:14;93838.28;;;21.30;33.67
4469;BME280;2247;42.666;23.292;2023-04-24T10:54:44;93825.44;;;21.20;33.34
4469;BME280;2247;42.666;23.292;2023-04-24T10:57:36;93826.72;;;21.26;33.81
4469;BME280;2247;42.666;23.292;2023-04-24T11:00:18;93827.16;;;21.28;33.93
4469;BME280;2247;42.666;23.292;2023-04-24T11:02:47;93814.59;;;21.32;34.01
4469;BME280;2247;42.666;23.292;2023-04-24T11:05:16;93827.38;;;21.39;34.34
4469;BME280;2247;42.666;23.292;2023-04-24T11:08:12;93821.16;;;21.35;34.50
4469;BME280;2247;42.666;23.292;2023-04-24T11:10:40;93806.97;;;21.34;34.15
4469;BME280;2247;42.666;23.292;2023-04-24T11:13:08;93831.41;;;21.48;34.27
4469;BME280;2247;42.666;23.292;2023-04-24T11:15:35;93830.69;;;21.51;34.24
4469;BME280;2247;42.666;23.292;2023-04-24T11:18:04;93834.78;;;21.45;33.74
4469;BME280;2247;42.666;23.292;2023-04-24T11:20:31;93822.72;;;21.36;34.61
4469;BME280;2247;42.666;23.292;2023-04-24T11:23:03;93851.38;;;21.16;37.12
4469;BME280;2247;42.666;23.292;2023-04-24T11:25:32;93866.56;;;20.77;42.10
4469;BME280;2247;42.666;23.292;2023-04-24T11:28:05;93830.28;;;20.32;44.27
4469;BME280;2247;42.666;23.292;2023-04-24T11:30:33;93880.81;;;20.34;44.51
4469;BME280;2247;42.666;23.292;2023-04-24T11:33:05;93877.53;;;20.40;44.16
4469;BME280;2247;42.666;23.292;2023-04-24T11:35:35;93877.97;;;20.58;43.43
4469;BME280;2247;42.666;23.292;2023-04-24T11:38:06;93878.50;;;20.64;41.22
4469;BME280;2247;42.666;23.292;2023-04-24T11:40:34;93870.38;;;20.60;40.54
4469;BME280;2247;42.666;23.292;2023-04-24T11:43:00;93863.72;;;20.54;41.15
4469;BME280;2247;42.666;23.292;2023-04-24T11:45:28;93858.44;;;20.42;43.16
4469;BME280;2247;42.666;23.292;2023-04-24T11:47:55;93852.59;;;20.36;42.86
4469;BME280;2247;42.666;23.292;2023-04-24T11:50:24;93850.75;;;20.25;45.11
4469;BME280;2247;42.666;23.292;2023-04-24T11:52:53;93853.38;;;20.09;47.30
4469;BME280;2247;42.666;23.292;2023-04-24T11:55:26;93849.72;;;19.86;48.30
4469;BME280;2247;42.666;23.292;2023-04-24T11:57:55;93845.84;;;19.83;47.76
4469;BME280;2247;42.666;23.292;2023-04-24T12:00:24;93837.81;;;19.83;46.74
4469;BME280;2247;42.666;23.292;2023-04-24T12:03:05;93831.34;;;19.84;45.84
4469;BME280;2247;42.666;23.292;2023-04-24T12:05:33;93824.28;;;19.92;46.60
4469;BME280;2247;42.666;23.292;2023-04-24T12:08:01;93827.56;;;20.01;44.78
4469;BME280;2247;42.666;23.292;2023-04-24T12:10:29;93825.00;;;20.04;43.56
4469;BME280;2247;42.666;23.292;2023-04-24T12:12:57;93825.75;;;20.33;44.46
4469;BME280;2247;42.666;23.292;2023-04-24T12:15:24;93827.88;;;20.43;43.39
4469;BME280;2247;42.666;23.292;2023-04-24T12:17:52;93814.34;;;20.52;43.50
4469;BME280;2247;42.666;23.292;2023-04-24T12:20:24;93792.41;;;20.46;43.13
4469;BME280;2247;42.666;23.292;2023-04-24T12:22:54;93813.34;;;20.75;42.73
4469;BME280;2247;42.666;23.292;2023-04-24T12:25:23;93796.47;;;20.91;41.41
4469;BME280;2247;42.666;23.292;2023-04-24T12:27:53;93794.22;;;20.93;38.32
4469;BME280;2247;42.666;23.292;2023-04-24T12:30:21;93788.53;;;20.78;38.47
4469;BME280;2247;42.666;23.292;2023-04-24T12:32:52;93772.94;;;20.65;39.55
4469;BME280;2247;42.666;23.292;2023-04-24T12:35:21;93769.31;;;20.57;40.03
4469;BME280;2247;42.666;23.292;2023-04-24T12:37:48;93768.38;;;20.50;39.51
4469;BME280;2247;42.666;23.292;2023-04-24T12:40:18;93765.44;;;20.55;39.83
4469;BME280;2247;42.666;23.292;2023-04-24T12:42:46;93762.09;;;20.77;39.93
4469;BME280;2247;42.666;23.292;2023-04-24T12:45:15;93761.19;;;20.89;38.76
4469;BME280;2247;42.666;23.292;2023-04-24T12:47:43;93753.53;;;20.87;38.74
4469;BME280;2247;42.666;23.292;2023-04-24T12:50:10;93739.81;;;21.08;39.10
4469;BME280;2247;42.666;23.292;2023-04-24T12:52:38;93744.97;;;21.16;38.83
4469;BME280;2247;42.666;23.292;2023-04-24T12:55:06;93733.75;;;21.30;38.79
4469;BME280;2247;42.666;23.292;2023-04-24T12:57:37;93724.38;;;21.40;37.70
4469;BME280;2247;42.666;23.292;2023-04-24T13:00:05;93723.59;;;21.39;37.22
4469;BME280;2247;42.666;23.292;2023-04-24T13:02:33;93715.53;;;21.39;36.42
4469;BME280;2247;42.666;23.292;2023-04-24T13:05:00;93706.44;;;21.44;36.61
4469;BME280;2247;42.666;23.292;2023-04-24T13:07:27;93703.63;;;21.37;37.13
4469;BME280;2247;42.666;23.292;2023-04-24T13:09:55;93704.00;;;21.35;36.46
4469;BME280;2247;42.666;23.292;2023-04-24T13:12:22;93697.13;;;21.38;37.04
4469;BME280;2247;42.666;23.292;2023-04-24T13:14:53;93692.50;;;21.57;36.80